Airport View

Enter AWOS ICAO identifier for current METAR.

ex. KFNL

KOWP 262255Z AUTO 32011G15KT 10SM BKN050 05/M06 A3037 RMK AO2 T00541062 PWINO

26 Feb 2020 23:19

Frequency: 118.325

Phone: 918-246-2635

Other Area AWOS: KRVS - KTUL - KOKM - KCUH

TAF KRVS 261731Z 2618/2718 33011G20KT P6SM BKN040 FM262300 33009KT P6SM SCT040 FM270300 00000KT P6SM SKC FM271600 22010G22KT P6SM SCT100